LGR888 PAST-PADQ

Flight info

Callsign LGR888
Flight time N/A
Altitude 9000
Route TKA TAGER ODK
Aircraft R66/L-SFG/C

Departure

Time 2026-04-23 17:57
Airport Summit Airport (PAST)

Arrival

Time N/A
Airport Kodiak Airport (PADQ)
Time Latitude Longitude Altitude Speed Heading
2026-04-23 17:49 63.32795 -149.13876 2372 ft 0 kts 356°
2026-04-23 17:56 63.32778 -149.13856 2748 ft 13 kts 27°
2026-04-23 17:56 63.32836 -149.13437 3055 ft 22 kts 38°
2026-04-23 17:57 63.32790 -149.13428 3262 ft 8 kts 78°
2026-04-23 17:57 63.32871 -149.13361 3427 ft 7 kts
2026-04-23 17:57 63.32844 -149.14323 3792 ft 56 kts 199°
2026-04-23 17:58 63.32352 -149.14481 3745 ft 96 kts 170°
2026-04-23 17:58 63.31587 -149.14696 3489 ft 120 kts 175°
2026-04-23 17:58 63.30907 -149.13969 3488 ft 113 kts 117°
2026-04-23 17:58 63.30754 -149.12311 3473 ft 113 kts 70°
2026-04-23 17:59 63.31287 -149.11101 3537 ft 114 kts 16°
2026-04-23 17:59 63.32044 -149.10330 3397 ft 124 kts 19°
2026-04-23 17:59 63.32865 -149.09938 3366 ft 123 kts
2026-04-23 17:59 63.33728 -149.10091 3281 ft 125 kts 353°
2026-04-23 18:00 63.34559 -149.09621 3141 ft 124 kts 31°
2026-04-23 18:00 63.35036 -149.08180 3181 ft 109 kts 73°
2026-04-23 18:00 63.34942 -149.06677 3399 ft 93 kts 113°
2026-04-23 18:00 63.34965 -149.05337 3677 ft 87 kts 71°
2026-04-23 18:01 63.35318 -149.04314 3912 ft 86 kts 41°
2026-04-23 18:01 63.35896 -149.04025 4161 ft 88 kts 357°
2026-04-23 18:01 63.36414 -149.04631 4411 ft 84 kts 316°
2026-04-23 18:01 63.36623 -149.05801 4662 ft 81 kts 268°
2026-04-23 18:02 63.36437 -149.06876 4924 ft 74 kts 227°
2026-04-23 18:02 63.36147 -149.07788 5208 ft 72 kts 229°
2026-04-23 18:02 63.35855 -149.08664 5426 ft 69 kts 231°
2026-04-23 18:02 63.35535 -149.09427 5651 ft 66 kts 220°
2026-04-23 18:03 63.35187 -149.10078 5893 ft 64 kts 216°
2026-04-23 18:03 63.34835 -149.10643 6119 ft 62 kts 211°
2026-04-23 18:03 63.34475 -149.11150 6324 ft 60 kts 208°
2026-04-23 18:03 63.34121 -149.11598 6538 ft 59 kts 206°
2026-04-23 18:04 63.33768 -149.12027 6767 ft 57 kts 205°
2026-04-23 18:04 63.33418 -149.12421 6950 ft 56 kts 206°
2026-04-23 18:04 63.33076 -149.12802 7119 ft 55 kts 205°
2026-04-23 18:04 63.32738 -149.13159 7293 ft 54 kts 204°
2026-04-23 18:05 63.32404 -149.13509 7474 ft 53 kts 205°
2026-04-23 18:05 63.32075 -149.13849 7632 ft 52 kts 205°
2026-04-23 18:05 63.31746 -149.14183 7796 ft 51 kts 205°
2026-04-23 18:05 63.31428 -149.14505 7977 ft 50 kts 206°
2026-04-23 18:06 63.31112 -149.14822 8140 ft 50 kts 206°
2026-04-23 18:06 63.30801 -149.15131 8305 ft 49 kts 206°
2026-04-23 18:06 63.30492 -149.15439 8471 ft 48 kts 206°
2026-04-23 18:06 63.30190 -149.15739 8615 ft 50 kts 206°
2026-04-23 18:07 63.29821 -149.16104 8635 ft 64 kts 204°
2026-04-23 18:07 63.29389 -149.16525 8643 ft 71 kts 203°
2026-04-23 18:07 63.28920 -149.16981 8645 ft 76 kts 202°
2026-04-23 18:07 63.28426 -149.17461 8646 ft 78 kts 202°
2026-04-23 18:08 63.28089 -149.17787 8648 ft 79 kts 202°
2026-04-23 18:08 63.27417 -149.18439 8650 ft 79 kts 201°
2026-04-23 18:08 63.26894 -149.18951 8657 ft 85 kts 202°
2026-04-23 18:08 63.26335 -149.19502 8654 ft 90 kts 202°
2026-04-23 18:09 63.25755 -149.20071 8655 ft 92 kts 202°
2026-04-23 18:09 63.25172 -149.20639 8658 ft 92 kts 202°
2026-04-23 18:09 63.24592 -149.21205 8661 ft 92 kts 202°
2026-04-23 18:09 63.23995 -149.21786 8659 ft 93 kts 202°
2026-04-23 18:10 63.23403 -149.22362 8656 ft 93 kts 202°
2026-04-23 18:10 63.22804 -149.22942 8659 ft 93 kts 203°
2026-04-23 18:10 63.22213 -149.23520 8662 ft 93 kts 203°
2026-04-23 18:10 63.21621 -149.24100 8664 ft 93 kts 203°
2026-04-23 18:11 63.21030 -149.24677 8660 ft 94 kts 202°
2026-04-23 18:11 63.20431 -149.25258 8657 ft 94 kts 202°
2026-04-23 18:11 63.19830 -149.25842 8655 ft 94 kts 202°
2026-04-23 18:11 63.19234 -149.26422 8656 ft 94 kts 202°
2026-04-23 18:12 63.18643 -149.26997 8654 ft 94 kts 202°
2026-04-23 18:12 63.18039 -149.27582 8653 ft 94 kts 202°
2026-04-23 18:12 63.17439 -149.28165 8652 ft 94 kts 202°
2026-04-23 18:12 63.16840 -149.28746 8650 ft 94 kts 201°
2026-04-23 18:13 63.16242 -149.29324 8651 ft 94 kts 202°
2026-04-23 18:13 63.15642 -149.29909 8648 ft 94 kts 202°
2026-04-23 18:13 63.15040 -149.30490 8648 ft 94 kts 202°
2026-04-23 18:13 63.14438 -149.31070 8645 ft 94 kts 202°
2026-04-23 18:14 63.13841 -149.31650 8634 ft 93 kts 202°
2026-04-23 18:14 63.13243 -149.32225 8646 ft 94 kts 202°
2026-04-23 18:14 63.12649 -149.32802 8639 ft 93 kts 202°
2026-04-23 18:14 63.12050 -149.33385 8637 ft 94 kts 202°
2026-04-23 18:15 63.11453 -149.33960 8639 ft 94 kts 202°
2026-04-23 18:15 63.10854 -149.34540 8648 ft 94 kts 202°
2026-04-23 18:15 63.10254 -149.35117 8642 ft 94 kts 203°
2026-04-23 18:15 63.09651 -149.35704 8646 ft 94 kts 202°
2026-04-23 18:16 63.09061 -149.36273 8636 ft 93 kts 202°
2026-04-23 18:16 63.08464 -149.36848 8623 ft 93 kts 203°
2026-04-23 18:16 63.07874 -149.37422 8641 ft 94 kts 202°
2026-04-23 18:17 63.06698 -149.38556 8639 ft 92 kts 202°
2026-04-23 18:17 63.06116 -149.39119 8630 ft 90 kts 202°
2026-04-23 18:17 63.05542 -149.39670 8652 ft 89 kts 204°
2026-04-23 18:17 63.04975 -149.40221 8619 ft 89 kts 203°
2026-04-23 18:18 63.04407 -149.40771 8635 ft 89 kts 203°
2026-04-23 18:18 63.03842 -149.41312 8647 ft 89 kts 203°
2026-04-23 18:18 63.03273 -149.41859 8631 ft 88 kts 203°
2026-04-23 18:18 63.02720 -149.42397 8636 ft 87 kts 203°
2026-04-23 18:19 63.02165 -149.42928 8641 ft 86 kts 204°
2026-04-23 18:19 63.01617 -149.43454 8634 ft 86 kts 204°
2026-04-23 18:19 63.01071 -149.43979 8637 ft 86 kts 204°
2026-04-23 18:19 63.00526 -149.44502 8638 ft 85 kts 204°
2026-04-23 18:20 62.99987 -149.45023 8639 ft 85 kts 204°
2026-04-23 18:20 62.99440 -149.45544 8643 ft 86 kts 204°
2026-04-23 18:20 62.98886 -149.46075 8650 ft 86 kts 204°
2026-04-23 18:20 62.98338 -149.46602 8638 ft 86 kts 204°
2026-04-23 18:21 62.97787 -149.47130 8645 ft 86 kts 204°
2026-04-23 18:21 62.97237 -149.47656 8647 ft 86 kts 204°
2026-04-23 18:21 62.96689 -149.48183 8645 ft 86 kts 204°
2026-04-23 18:21 62.96140 -149.48708 8643 ft 86 kts 204°
2026-04-23 18:22 62.95589 -149.49234 8643 ft 86 kts 204°
2026-04-23 18:22 62.95045 -149.49751 8643 ft 85 kts 204°
2026-04-23 18:22 62.94503 -149.50270 8643 ft 85 kts 204°
2026-04-23 18:22 62.93956 -149.50792 8644 ft 85 kts 204°
2026-04-23 18:23 62.93595 -149.51135 8645 ft 86 kts 204°
2026-04-23 18:23 62.92312 -149.52359 8646 ft 86 kts 203°
2026-04-23 18:24 62.91216 -149.53401 8649 ft 86 kts 203°
2026-04-23 18:24 62.90665 -149.53926 8648 ft 87 kts 203°
2026-04-23 18:24 62.90111 -149.54451 8649 ft 87 kts 204°
2026-04-23 18:25 62.89086 -149.55432 8780 ft 82 kts 203°
2026-04-23 18:25 62.88583 -149.55910 8869 ft 77 kts 204°
2026-04-23 18:25 62.88100 -149.56375 8959 ft 77 kts 204°
2026-04-23 18:25 62.87649 -149.56802 9108 ft 72 kts 205°
2026-04-23 18:26 62.87174 -149.57260 9165 ft 76 kts 205°
2026-04-23 18:26 62.86667 -149.57745 9143 ft 82 kts 204°
2026-04-23 18:26 62.86140 -149.58243 9138 ft 84 kts 204°
2026-04-23 18:26 62.85596 -149.58756 9108 ft 86 kts 203°
2026-04-23 18:27 62.85047 -149.59274 9099 ft 86 kts 204°
2026-04-23 18:27 62.84501 -149.59788 9083 ft 86 kts 202°
2026-04-23 18:27 62.83948 -149.60313 9075 ft 86 kts 203°
2026-04-23 18:27 62.83399 -149.60831 9070 ft 85 kts 202°
2026-04-23 18:28 62.82857 -149.61339 9058 ft 86 kts 203°
2026-04-23 18:28 62.82304 -149.61862 9051 ft 86 kts 204°
2026-04-23 18:28 62.81748 -149.62384 9002 ft 88 kts 202°
2026-04-23 18:28 62.81190 -149.62911 8998 ft 86 kts 203°
2026-04-23 18:29 62.80644 -149.63428 9000 ft 85 kts 203°
2026-04-23 18:29 62.80102 -149.63939 9002 ft 85 kts 203°
2026-04-23 18:29 62.79560 -149.64452 9003 ft 85 kts 202°
2026-04-23 18:29 62.79019 -149.64961 8999 ft 82 kts 202°
2026-04-23 18:30 62.78503 -149.65437 9008 ft 78 kts 201°
2026-04-23 18:30 62.78023 -149.65889 9013 ft 73 kts 201°
2026-04-23 18:30 62.77569 -149.66313 9009 ft 66 kts 199°
2026-04-23 18:30 62.77161 -149.66685 8997 ft 60 kts 199°
2026-04-23 18:31 62.76798 -149.67021 9036 ft 60 kts 205°
2026-04-23 18:31 62.76384 -149.67424 9003 ft 66 kts 200°
2026-04-23 18:31 62.75992 -149.67787 9045 ft 57 kts 204°
2026-04-23 18:31 62.75586 -149.68175 9030 ft 70 kts 202°
2026-04-23 18:32 62.75366 -149.68387 9033 ft 73 kts 203°
2026-04-23 18:32 62.74883 -149.68845 9034 ft 77 kts 202°
2026-04-23 18:32 62.74386 -149.69316 9035 ft 78 kts 202°
2026-04-23 18:32 62.73889 -149.69783 9035 ft 78 kts 202°
2026-04-23 18:33 62.73385 -149.70259 9034 ft 78 kts 201°
2026-04-23 18:33 62.72887 -149.70725 9038 ft 78 kts 203°
2026-04-23 18:33 62.72385 -149.71197 9038 ft 78 kts 202°
2026-04-23 18:33 62.71887 -149.71664 9037 ft 78 kts 202°
2026-04-23 18:34 62.71389 -149.72134 9045 ft 78 kts 203°
2026-04-23 18:34 62.70887 -149.72607 9047 ft 78 kts 203°
2026-04-23 18:34 62.70390 -149.73076 9044 ft 78 kts 202°
2026-04-23 18:34 62.69897 -149.73537 9043 ft 77 kts 202°
2026-04-23 18:35 62.69429 -149.73976 9190 ft 56 kts 206°
2026-04-23 18:35 62.69046 -149.74353 9089 ft 79 kts 202°
2026-04-23 18:35 62.68534 -149.74831 9056 ft 80 kts 202°
2026-04-23 18:35 62.68027 -149.75302 9054 ft 79 kts 202°
2026-04-23 18:36 62.67519 -149.75775 9053 ft 79 kts 202°
2026-04-23 18:36 62.67017 -149.76244 9050 ft 79 kts 202°
2026-04-23 18:36 62.66510 -149.76718 9050 ft 79 kts 202°
2026-04-23 18:36 62.66006 -149.77188 9050 ft 79 kts 202°
2026-04-23 18:37 62.65500 -149.77658 9050 ft 79 kts 202°
2026-04-23 18:37 62.64993 -149.78131 9046 ft 79 kts 202°
2026-04-23 18:37 62.64500 -149.78590 9044 ft 79 kts 201°
2026-04-23 18:37 62.64022 -149.79034 9047 ft 78 kts 202°
2026-04-23 18:38 62.63650 -149.79388 9308 ft 52 kts 206°
2026-04-23 18:38 62.63227 -149.79793 9068 ft 82 kts 201°
2026-04-23 18:38 62.62732 -149.80249 9053 ft 82 kts 201°
2026-04-23 18:38 62.62229 -149.80714 9051 ft 81 kts 201°
2026-04-23 18:39 62.61741 -149.81165 9048 ft 81 kts 201°
2026-04-23 18:39 62.61259 -149.81612 9043 ft 80 kts 201°
2026-04-23 18:39 62.60742 -149.82092 9045 ft 80 kts 201°
2026-04-23 18:39 62.60228 -149.82567 9044 ft 81 kts 201°
2026-04-23 18:40 62.59711 -149.83048 9045 ft 81 kts 201°
2026-04-23 18:40 62.59185 -149.83534 9047 ft 81 kts 201°
2026-04-23 18:40 62.58665 -149.84015 9046 ft 81 kts 201°
2026-04-23 18:40 62.58136 -149.84505 9047 ft 81 kts 201°
2026-04-23 18:41 62.57612 -149.84992 9045 ft 82 kts 201°
2026-04-23 18:41 62.57090 -149.85475 9044 ft 82 kts 201°
2026-04-23 18:41 62.56561 -149.85963 9047 ft 83 kts 201°
2026-04-23 18:41 62.56027 -149.86461 9048 ft 83 kts 200°
2026-04-23 18:42 62.55497 -149.86949 9042 ft 83 kts 201°
2026-04-23 18:42 62.54961 -149.87447 9046 ft 83 kts 201°
2026-04-23 18:42 62.54425 -149.87942 9046 ft 83 kts 201°
2026-04-23 18:42 62.53891 -149.88435 9046 ft 83 kts 200°
2026-04-23 18:43 62.53359 -149.88925 9050 ft 84 kts 200°
2026-04-23 18:43 62.52817 -149.89429 9048 ft 84 kts 200°
2026-04-23 18:43 62.52283 -149.89922 9049 ft 84 kts 200°
2026-04-23 18:43 62.51743 -149.90418 9049 ft 84 kts 200°
2026-04-23 18:44 62.51202 -149.90918 9050 ft 84 kts 200°
2026-04-23 18:44 62.50655 -149.91420 9051 ft 84 kts 200°
2026-04-23 18:44 62.50120 -149.91913 9046 ft 84 kts 200°
2026-04-23 18:44 62.49581 -149.92412 9054 ft 84 kts 200°
2026-04-23 18:45 62.49039 -149.92911 9052 ft 85 kts 200°
2026-04-23 18:45 62.48497 -149.93411 9049 ft 84 kts 200°
2026-04-23 18:45 62.47961 -149.93904 9056 ft 84 kts 200°
2026-04-23 18:45 62.47413 -149.94408 9055 ft 84 kts 200°
2026-04-23 18:46 62.46876 -149.94900 9052 ft 84 kts 200°
2026-04-23 18:46 62.46332 -149.95403 9053 ft 84 kts 200°
2026-04-23 18:46 62.45793 -149.95897 9053 ft 84 kts 200°
2026-04-23 18:46 62.45256 -149.96390 9063 ft 85 kts 200°
2026-04-23 18:47 62.44706 -149.96896 9060 ft 85 kts 200°
2026-04-23 18:47 62.44160 -149.97397 9062 ft 85 kts 200°
2026-04-23 18:47 62.43605 -149.97905 9059 ft 85 kts 200°
2026-04-23 18:47 62.43066 -149.98399 9061 ft 86 kts 200°
2026-04-23 18:48 62.42512 -149.98908 9063 ft 86 kts 200°
2026-04-23 18:48 62.41959 -149.99414 9062 ft 86 kts 200°
2026-04-23 18:48 62.41415 -149.99911 9063 ft 85 kts 200°
2026-04-23 18:48 62.40870 -150.00413 9063 ft 85 kts 200°
2026-04-23 18:49 62.40326 -150.00911 9065 ft 85 kts 200°
2026-04-23 18:49 62.39776 -150.01416 9065 ft 86 kts 200°
2026-04-23 18:49 62.39231 -150.01915 9064 ft 86 kts 200°
2026-04-23 18:49 62.38677 -150.02420 9068 ft 86 kts 199°
2026-04-23 18:50 62.38313 -150.02753 9068 ft 86 kts 200°
2026-04-23 18:50 62.37569 -150.03433 9068 ft 86 kts 199°
2026-04-23 18:50 62.37019 -150.03934 9067 ft 86 kts 200°
2026-04-23 18:50 62.36483 -150.04423 9069 ft 85 kts 200°
2026-04-23 18:51 62.35957 -150.04907 9068 ft 86 kts 200°
2026-04-23 18:51 62.35442 -150.05376 9071 ft 86 kts 199°
2026-04-23 18:51 62.34915 -150.05858 9071 ft 87 kts 199°
2026-04-23 18:51 62.34385 -150.06340 9072 ft 87 kts 199°
2026-04-23 18:52 62.33841 -150.06838 9072 ft 87 kts 199°
2026-04-23 18:52 62.33305 -150.07326 9073 ft 88 kts 199°
2026-04-23 18:52 62.32755 -150.07826 9072 ft 88 kts 199°
2026-04-23 18:52 62.32191 -150.08336 9074 ft 87 kts 199°
2026-04-23 18:53 62.31629 -150.08849 9075 ft 88 kts 199°
2026-04-23 18:53 62.31096 -150.09335 9074 ft 88 kts 199°
2026-04-23 18:53 62.30541 -150.09840 9074 ft 89 kts 199°
2026-04-23 18:53 62.29995 -150.10323 9074 ft 89 kts 196°
2026-04-23 18:54 62.29422 -150.10667 9074 ft 89 kts 193°
2026-04-23 18:54 62.28853 -150.11003 9075 ft 89 kts 193°
2026-04-23 18:54 62.28277 -150.11337 9075 ft 89 kts 193°
2026-04-23 18:54 62.27714 -150.11662 9076 ft 89 kts 193°
2026-04-23 18:55 62.27141 -150.11993 9075 ft 89 kts 192°
2026-04-23 18:55 62.26585 -150.12314 9074 ft 89 kts 192°
2026-04-23 18:55 62.26031 -150.12630 9071 ft 89 kts 192°
2026-04-23 18:55 62.25473 -150.12950 9070 ft 89 kts 192°
2026-04-23 18:56 62.25096 -150.13165 9075 ft 89 kts 192°
2026-04-23 18:56 62.24368 -150.13579 9078 ft 89 kts 192°
2026-04-23 18:56 62.23799 -150.13899 9075 ft 89 kts 192°
2026-04-23 18:56 62.23239 -150.14218 9070 ft 89 kts 193°
2026-04-23 18:57 62.22680 -150.14534 9067 ft 88 kts 193°
2026-04-23 18:57 62.22130 -150.14848 9072 ft 88 kts 193°
2026-04-23 18:57 62.21578 -150.15163 9073 ft 89 kts 192°
2026-04-23 18:57 62.21022 -150.15479 9072 ft 89 kts 192°
2026-04-23 18:58 62.20419 -150.15819 9068 ft 89 kts 192°
2026-04-23 18:58 62.19820 -150.16157 9072 ft 89 kts 192°
2026-04-23 18:58 62.19217 -150.16499 9076 ft 90 kts 192°
2026-04-23 18:58 62.18606 -150.16844 9078 ft 91 kts 192°
2026-04-23 18:59 62.17998 -150.17189 9077 ft 91 kts 192°
2026-04-23 18:59 62.17386 -150.17535 9074 ft 91 kts 191°
2026-04-23 18:59 62.16768 -150.17883 9064 ft 91 kts 191°
2026-04-23 18:59 62.16153 -150.18228 9058 ft 91 kts 191°
2026-04-23 19:00 62.15546 -150.18570 9063 ft 91 kts 192°
2026-04-23 19:00 62.14925 -150.18919 9062 ft 91 kts 192°
2026-04-23 19:00 62.14313 -150.19261 9065 ft 91 kts 192°
2026-04-23 19:00 62.13704 -150.19604 9069 ft 91 kts 192°
2026-04-23 19:01 62.13086 -150.19949 9072 ft 92 kts 192°
2026-04-23 19:01 62.12464 -150.20302 9071 ft 92 kts 192°
2026-04-23 19:01 62.11850 -150.20648 9064 ft 91 kts 192°
2026-04-23 19:01 62.11242 -150.20993 9071 ft 90 kts 192°
2026-04-23 19:02 62.10829 -150.21225 9071 ft 90 kts 191°
2026-04-23 19:02 62.10024 -150.21677 9074 ft 90 kts 192°
2026-04-23 19:02 62.09421 -150.22015 9074 ft 89 kts 191°
2026-04-23 19:02 62.08818 -150.22356 9074 ft 90 kts 191°
2026-04-23 19:03 62.08209 -150.22697 9073 ft 90 kts 191°
2026-04-23 19:03 62.07599 -150.23039 9070 ft 90 kts 191°
2026-04-23 19:03 62.07000 -150.23375 9075 ft 90 kts 191°
2026-04-23 19:03 62.06388 -150.23718 9076 ft 90 kts 191°
2026-04-23 19:04 62.05777 -150.24059 9076 ft 91 kts 191°
2026-04-23 19:04 62.05171 -150.24399 9074 ft 91 kts 191°
2026-04-23 19:04 62.04552 -150.24744 9073 ft 91 kts 192°
2026-04-23 19:04 62.03940 -150.25085 9070 ft 91 kts 192°
2026-04-23 19:05 62.03330 -150.25429 9079 ft 91 kts 192°
2026-04-23 19:05 62.02713 -150.25775 9075 ft 92 kts 192°
2026-04-23 19:05 62.02092 -150.26121 9080 ft 92 kts 191°
2026-04-23 19:05 62.01472 -150.26471 9072 ft 92 kts 191°
2026-04-23 19:06 62.00851 -150.26816 9071 ft 91 kts 191°
2026-04-23 19:06 62.00237 -150.27159 9067 ft 91 kts 191°
2026-04-23 19:06 61.99629 -150.27498 9077 ft 91 kts 191°
2026-04-23 19:06 61.99015 -150.27841 9076 ft 92 kts 191°
2026-04-23 19:07 61.98397 -150.28185 9081 ft 91 kts 191°
2026-04-23 19:07 61.97778 -150.28531 9078 ft 92 kts 191°
2026-04-23 19:07 61.97156 -150.28877 9076 ft 91 kts 191°
2026-04-23 19:07 61.96537 -150.29221 9076 ft 92 kts 191°
2026-04-23 19:08 61.95923 -150.29562 9072 ft 91 kts 191°
2026-04-23 19:08 61.95312 -150.29901 9071 ft 90 kts 191°
2026-04-23 19:08 61.94693 -150.30246 9070 ft 91 kts 191°
2026-04-23 19:08 61.94080 -150.30589 9070 ft 91 kts 191°
2026-04-23 19:09 61.93466 -150.30930 9074 ft 91 kts 191°
2026-04-23 19:09 61.92839 -150.31279 9041 ft 93 kts 191°
2026-04-23 19:09 61.92218 -150.31622 9041 ft 92 kts 191°
2026-04-23 19:09 61.91592 -150.31970 9022 ft 94 kts 190°
2026-04-23 19:10 61.90963 -150.32320 9016 ft 93 kts 191°
2026-04-23 19:10 61.90339 -150.32665 9016 ft 93 kts 191°
2026-04-23 19:10 61.89710 -150.33015 8993 ft 94 kts 190°
2026-04-23 19:10 61.89080 -150.33362 8994 ft 93 kts 191°
2026-04-23 19:11 61.88449 -150.33710 8994 ft 93 kts 190°
2026-04-23 19:11 61.87820 -150.34059 8995 ft 94 kts 190°
2026-04-23 19:11 61.87190 -150.34409 8995 ft 94 kts 190°
2026-04-23 19:11 61.86557 -150.34760 8994 ft 94 kts 191°
2026-04-23 19:12 61.86145 -150.34985 8994 ft 93 kts 190°
2026-04-23 19:12 61.85307 -150.35451 8993 ft 93 kts 190°
2026-04-23 19:12 61.84678 -150.35796 8994 ft 93 kts 191°
2026-04-23 19:12 61.84052 -150.36142 8983 ft 91 kts 189°
2026-04-23 19:13 61.83456 -150.36467 8987 ft 86 kts 189°
2026-04-23 19:13 61.82892 -150.36772 8991 ft 84 kts 190°
2026-04-23 19:13 61.82323 -150.37083 8996 ft 85 kts 190°
2026-04-23 19:13 61.81740 -150.37405 8992 ft 87 kts 191°
2026-04-23 19:14 61.81152 -150.37729 8989 ft 87 kts 190°
2026-04-23 19:14 61.80568 -150.38052 8991 ft 88 kts 190°
2026-04-23 19:14 61.79978 -150.38377 8996 ft 88 kts 190°
2026-04-23 19:14 61.79382 -150.38704 8996 ft 88 kts 190°
2026-04-23 19:15 61.78788 -150.39031 8997 ft 88 kts 190°
2026-04-23 19:15 61.78194 -150.39357 8995 ft 88 kts 190°
2026-04-23 19:15 61.77597 -150.39687 8993 ft 88 kts 189°
2026-04-23 19:15 61.77009 -150.40008 8993 ft 88 kts 190°
2026-04-23 19:16 61.76413 -150.40335 8992 ft 88 kts 190°
2026-04-23 19:16 61.75818 -150.40663 8994 ft 88 kts 190°
2026-04-23 19:16 61.75225 -150.40990 8994 ft 88 kts 189°
2026-04-23 19:17 61.74048 -150.41634 8991 ft 87 kts 190°
2026-04-23 19:17 61.73457 -150.41957 8989 ft 87 kts 190°
2026-04-23 19:17 61.72889 -150.42270 8989 ft 87 kts 190°
2026-04-23 19:17 61.72310 -150.42584 8990 ft 87 kts 190°
2026-04-23 19:18 61.71722 -150.42908 8994 ft 87 kts 190°
2026-04-23 19:18 61.71137 -150.43230 8994 ft 88 kts 190°
2026-04-23 19:18 61.70546 -150.43553 8992 ft 88 kts 190°
2026-04-23 19:18 61.69951 -150.43880 8993 ft 88 kts 190°
2026-04-23 19:19 61.68751 -150.44536 8995 ft 89 kts 189°
2026-04-23 19:19 61.68158 -150.44859 8994 ft 89 kts 190°
2026-04-23 19:20 61.66959 -150.45515 8994 ft 88 kts 189°
2026-04-23 19:20 61.66369 -150.45836 8993 ft 88 kts 189°
2026-04-23 19:20 61.65777 -150.46158 8992 ft 88 kts 190°
2026-04-23 19:20 61.65180 -150.46484 8991 ft 88 kts 190°
2026-04-23 19:21 61.64588 -150.46808 8993 ft 88 kts 190°
2026-04-23 19:21 61.63392 -150.47182 8993 ft 87 kts 178°
2026-04-23 19:21 61.62780 -150.47221 8993 ft 87 kts 181°
2026-04-23 19:22 61.62185 -150.47314 8992 ft 87 kts 182°
2026-04-23 19:22 61.61582 -150.47450 8992 ft 87 kts 184°
2026-04-23 19:22 61.60380 -150.47819 8992 ft 87 kts 186°
2026-04-23 19:23 61.59781 -150.48042 8995 ft 88 kts 186°
2026-04-23 19:23 61.59172 -150.48285 8989 ft 88 kts 187°
2026-04-23 19:23 61.58575 -150.48537 8992 ft 88 kts 187°
2026-04-23 19:24 61.57383 -150.49072 8991 ft 88 kts 188°
2026-04-23 19:24 61.56789 -150.49352 8991 ft 88 kts 188°
2026-04-23 19:24 61.55593 -150.49933 8993 ft 88 kts 189°
2026-04-23 19:25 61.54395 -150.50525 8993 ft 89 kts 189°
2026-04-23 19:25 61.53189 -150.51134 8990 ft 89 kts 189°
2026-04-23 19:26 61.51992 -150.51743 8987 ft 88 kts 189°
2026-04-23 19:26 61.51400 -150.52043 8983 ft 88 kts 189°
2026-04-23 19:27 61.50204 -150.52657 8980 ft 88 kts 189°
2026-04-23 19:27 61.48414 -150.53575 8977 ft 89 kts 189°
2026-04-23 19:28 61.47220 -150.54189 8976 ft 89 kts 189°
2026-04-23 19:28 61.46173 -150.55633 8964 ft 94 kts 215°
2026-04-23 19:29 61.45728 -150.56610 8966 ft 94 kts 216°
2026-04-23 19:29 61.44827 -150.58598 8961 ft 94 kts 215°
2026-04-23 19:30 61.43928 -150.60574 8950 ft 94 kts 215°
2026-04-23 19:30 61.43474 -150.61571 8948 ft 94 kts 215°
2026-04-23 19:30 61.42574 -150.63550 8944 ft 93 kts 215°
2026-04-23 19:31 61.42131 -150.64523 8943 ft 93 kts 215°
2026-04-23 19:31 61.41676 -150.65518 8941 ft 94 kts 214°
2026-04-23 19:31 61.41231 -150.66495 8943 ft 93 kts 214°
2026-04-23 19:31 61.40755 -150.67392 8942 ft 92 kts 209°
2026-04-23 19:32 61.40247 -150.68193 8940 ft 90 kts 205°
2026-04-23 19:32 61.39722 -150.68898 8939 ft 89 kts 202°
2026-04-23 19:32 61.39180 -150.69542 8939 ft 89 kts 199°
2026-04-23 19:32 61.38636 -150.70120 8939 ft 89 kts 198°
2026-04-23 19:33 61.38073 -150.70668 8940 ft 89 kts 197°
2026-04-23 19:33 61.37512 -150.71175 8943 ft 88 kts 195°
2026-04-23 19:33 61.36367 -150.72121 8950 ft 88 kts 194°
2026-04-23 19:34 61.35794 -150.72562 8951 ft 88 kts 193°
2026-04-23 19:34 61.35214 -150.72994 8953 ft 88 kts 193°
2026-04-23 19:34 61.34043 -150.73819 8965 ft 88 kts 191°
2026-04-23 19:35 61.33459 -150.74123 8997 ft 85 kts 187°
2026-04-23 19:35 61.32885 -150.74321 9027 ft 84 kts 182°
2026-04-23 19:35 61.32303 -150.74388 9021 ft 82 kts 177°
2026-04-23 19:35 61.31740 -150.74310 9028 ft 81 kts 174°
2026-04-23 19:36 61.31166 -150.74158 9121 ft 84 kts 174°
2026-04-23 19:36 61.30590 -150.73987 9228 ft 86 kts 173°
2026-04-23 19:36 61.29966 -150.73770 9195 ft 96 kts 170°
2026-04-23 19:36 61.29294 -150.73448 9114 ft 102 kts 166°
2026-04-23 19:37 61.28584 -150.73406 8981 ft 107 kts 192°
2026-04-23 19:37 61.27998 -150.74414 8870 ft 112 kts 216°
2026-04-23 19:37 61.27455 -150.75565 8796 ft 111 kts 213°
2026-04-23 19:37 61.26864 -150.76587 8717 ft 110 kts 208°
2026-04-23 19:38 61.26242 -150.77467 8647 ft 109 kts 204°
2026-04-23 19:38 61.25585 -150.78256 8574 ft 109 kts 201°
2026-04-23 19:38 61.24912 -150.78966 8503 ft 109 kts 198°
2026-04-23 19:38 61.24218 -150.79622 8428 ft 109 kts 197°
2026-04-23 19:39 61.23530 -150.80220 8352 ft 108 kts 195°
2026-04-23 19:39 61.22819 -150.80795 8271 ft 109 kts 194°
2026-04-23 19:39 61.22109 -150.81339 8180 ft 109 kts 193°
2026-04-23 19:39 61.21400 -150.81857 8095 ft 109 kts 193°
2026-04-23 19:40 61.20686 -150.82362 8009 ft 108 kts 192°
2026-04-23 19:40 61.19975 -150.82852 7919 ft 108 kts 192°
2026-04-23 19:40 61.19262 -150.83336 7835 ft 108 kts 191°
2026-04-23 19:40 61.18549 -150.83810 7741 ft 108 kts 190°
2026-04-23 19:41 61.17846 -150.84265 7644 ft 102 kts 190°
2026-04-23 19:41 61.17173 -150.84698 7561 ft 100 kts 189°
2026-04-23 19:41 61.16511 -150.85124 7480 ft 100 kts 189°
2026-04-23 19:41 61.15843 -150.85550 7394 ft 101 kts 189°
2026-04-23 19:42 61.15170 -150.85980 7307 ft 101 kts 189°
2026-04-23 19:42 61.14496 -150.86409 7219 ft 102 kts 189°
2026-04-23 19:42 61.13821 -150.86838 7129 ft 102 kts 189°
2026-04-23 19:42 61.13148 -150.87267 7037 ft 103 kts 189°
2026-04-23 19:43 61.12454 -150.87705 6914 ft 105 kts 189°
2026-04-23 19:43 61.11758 -150.88145 6780 ft 105 kts 188°
2026-04-23 19:43 61.11065 -150.88565 6602 ft 104 kts 186°
2026-04-23 19:43 61.10362 -150.88992 6411 ft 104 kts 188°
2026-04-23 19:44 61.09676 -150.89424 6234 ft 104 kts 188°
2026-04-23 19:44 61.08984 -150.89862 6043 ft 104 kts 188°
2026-04-23 19:44 61.08292 -150.90297 5843 ft 104 kts 187°
2026-04-23 19:44 61.07600 -150.90732 5655 ft 105 kts 187°
2026-04-23 19:45 61.06903 -150.91170 5470 ft 105 kts 188°
2026-04-23 19:45 61.06207 -150.91606 5242 ft 105 kts 187°
2026-04-23 19:45 61.05523 -150.92027 5004 ft 105 kts 187°
2026-04-23 19:45 61.04825 -150.92465 4754 ft 105 kts 187°
2026-04-23 19:46 61.04132 -150.92894 4516 ft 105 kts 187°
2026-04-23 19:46 61.03444 -150.93323 4278 ft 106 kts 187°
2026-04-23 19:46 61.02738 -150.93765 4043 ft 106 kts 187°
2026-04-23 19:46 61.02038 -150.94203 3776 ft 105 kts 186°
2026-04-23 19:47 61.01350 -150.94629 3522 ft 104 kts 186°
2026-04-23 19:47 61.00657 -150.95058 3270 ft 104 kts 186°
2026-04-23 19:47 60.99971 -150.95483 3052 ft 101 kts 187°
2026-04-23 19:47 60.99336 -150.95892 3017 ft 89 kts 187°
2026-04-23 19:48 60.98779 -150.96249 3012 ft 81 kts 186°
2026-04-23 19:48 60.98241 -150.96591 3033 ft 86 kts 189°
2026-04-23 19:48 60.97633 -150.96982 3012 ft 94 kts 189°
2026-04-23 19:48 60.96994 -150.97394 3013 ft 97 kts 189°
2026-04-23 19:49 60.96353 -150.97804 3012 ft 98 kts 189°
2026-04-23 19:49 60.95699 -150.98222 3008 ft 98 kts 189°
2026-04-23 19:49 60.95051 -150.98636 3008 ft 98 kts 189°
2026-04-23 19:49 60.94392 -150.99051 3009 ft 98 kts 189°
2026-04-23 19:50 60.93747 -150.99461 3006 ft 98 kts 189°
2026-04-23 19:50 60.93096 -150.99872 3006 ft 98 kts 188°
2026-04-23 19:50 60.92446 -151.00279 3005 ft 97 kts 188°
2026-04-23 19:50 60.91796 -151.00688 2996 ft 98 kts 188°
2026-04-23 19:51 60.91136 -151.01097 2960 ft 100 kts 188°
2026-04-23 19:51 60.90472 -151.01509 2925 ft 101 kts 188°
2026-04-23 19:51 60.89802 -151.01924 2889 ft 101 kts 188°
2026-04-23 19:51 60.89144 -151.02336 2857 ft 101 kts 188°
2026-04-23 19:52 60.88475 -151.02753 2821 ft 102 kts 188°
2026-04-23 19:52 60.87798 -151.03172 2790 ft 102 kts 188°
2026-04-23 19:52 60.87117 -151.03595 2757 ft 102 kts 189°
2026-04-23 19:52 60.86435 -151.04019 2725 ft 102 kts 189°
2026-04-23 19:53 60.85757 -151.04437 2695 ft 103 kts 189°
2026-04-23 19:53 60.85067 -151.04868 2641 ft 104 kts 189°
2026-04-23 19:53 60.84372 -151.05296 2564 ft 105 kts 189°
2026-04-23 19:53 60.83664 -151.05734 2483 ft 105 kts 189°
2026-04-23 19:54 60.82963 -151.06169 2401 ft 105 kts 189°
2026-04-23 19:54 60.82270 -151.06598 2380 ft 99 kts 190°
2026-04-23 19:54 60.81602 -151.07016 2328 ft 102 kts 189°
2026-04-23 19:54 60.80920 -151.07437 2257 ft 104 kts 189°
2026-04-23 19:55 60.80231 -151.07863 2186 ft 104 kts 189°
2026-04-23 19:55 60.79527 -151.08293 2115 ft 105 kts 189°
2026-04-23 19:55 60.78824 -151.08727 2044 ft 106 kts 190°
2026-04-23 19:55 60.78128 -151.09157 1995 ft 104 kts 191°
2026-04-23 19:56 60.77446 -151.09581 1992 ft 101 kts 191°
2026-04-23 19:56 60.76775 -151.09999 1991 ft 100 kts 191°
2026-04-23 19:56 60.76109 -151.10414 1991 ft 99 kts 191°
2026-04-23 19:56 60.75446 -151.10826 1984 ft 98 kts 190°
2026-04-23 19:57 60.74807 -151.11220 1988 ft 96 kts 190°
2026-04-23 19:57 60.74164 -151.11618 1991 ft 96 kts 190°
2026-04-23 19:57 60.73532 -151.12009 1990 ft 95 kts 189°
2026-04-23 19:57 60.72898 -151.12399 1989 ft 95 kts 189°
2026-04-23 19:58 60.72265 -151.12788 1988 ft 95 kts 189°
2026-04-23 19:58 60.71632 -151.13176 1987 ft 94 kts 189°
2026-04-23 19:58 60.71006 -151.13562 1988 ft 94 kts 189°
2026-04-23 19:58 60.70379 -151.13947 1988 ft 94 kts 190°
2026-04-23 19:59 60.69750 -151.14331 1990 ft 94 kts 190°
2026-04-23 19:59 60.69123 -151.14717 1991 ft 95 kts 190°
2026-04-23 19:59 60.68491 -151.15108 1988 ft 95 kts 190°
2026-04-23 19:59 60.67854 -151.15498 1988 ft 95 kts 190°
2026-04-23 20:00 60.67223 -151.15887 1989 ft 95 kts 190°
2026-04-23 20:00 60.66597 -151.16272 1990 ft 95 kts 189°
2026-04-23 20:00 60.65960 -151.16666 1991 ft 95 kts 189°
2026-04-23 20:00 60.65334 -151.17049 1990 ft 95 kts 189°
2026-04-23 20:01 60.64698 -151.17441 1992 ft 95 kts 189°
2026-04-23 20:01 60.64067 -151.17827 1992 ft 95 kts 189°
2026-04-23 20:01 60.63438 -151.18210 1994 ft 95 kts 189°
2026-04-23 20:01 60.62809 -151.18594 1993 ft 95 kts 189°
2026-04-23 20:02 60.62185 -151.18977 1995 ft 95 kts 189°
2026-04-23 20:02 60.61549 -151.19324 1998 ft 92 kts 179°
2026-04-23 20:02 60.60914 -151.19266 1994 ft 92 kts 170°
2026-04-23 20:02 60.60276 -151.19180 1995 ft 93 kts 170°
2026-04-23 20:03 60.59625 -151.19089 1993 ft 93 kts 170°
2026-04-23 20:03 60.58979 -151.19000 1993 ft 93 kts 170°
2026-04-23 20:03 60.58338 -151.18907 1989 ft 93 kts 169°
2026-04-23 20:03 60.57705 -151.18816 1992 ft 91 kts 169°
2026-04-23 20:04 60.57079 -151.18720 1971 ft 93 kts 168°
2026-04-23 20:04 60.56423 -151.18616 1903 ft 96 kts 169°
2026-04-23 20:04 60.55756 -151.18510 1825 ft 96 kts 168°
2026-04-23 20:04 60.55105 -151.18407 1758 ft 93 kts 168°
2026-04-23 20:05 60.54462 -151.18303 1690 ft 93 kts 168°
2026-04-23 20:05 60.53818 -151.18199 1620 ft 93 kts 168°
2026-04-23 20:05 60.53177 -151.18095 1552 ft 93 kts 169°
2026-04-23 20:05 60.52543 -151.17996 1486 ft 93 kts 169°
2026-04-23 20:06 60.51907 -151.17896 1418 ft 93 kts 169°
2026-04-23 20:06 60.51265 -151.17795 1350 ft 94 kts 169°
2026-04-23 20:06 60.50621 -151.17697 1300 ft 92 kts 170°
2026-04-23 20:06 60.50006 -151.17604 1293 ft 89 kts 170°
2026-04-23 20:07 60.49402 -151.17514 1293 ft 87 kts 170°
2026-04-23 20:07 60.48805 -151.17425 1293 ft 86 kts 169°
2026-04-23 20:07 60.48215 -151.17326 1296 ft 85 kts 165°
2026-04-23 20:07 60.47783 -151.16647 1308 ft 82 kts 113°
2026-04-23 20:08 60.47701 -151.15495 1299 ft 84 kts 90°
2026-04-23 20:08 60.47673 -151.14285 1272 ft 86 kts 91°
2026-04-23 20:08 60.47625 -151.13092 1245 ft 83 kts 90°
2026-04-23 20:08 60.47587 -151.11949 1196 ft 82 kts 88°
2026-04-23 20:09 60.47555 -151.10700 919 ft 92 kts 88°
2026-04-23 20:09 60.47510 -151.09412 697 ft 91 kts 86°
2026-04-23 20:09 60.47504 -151.08162 513 ft 88 kts 81°
2026-04-23 20:09 60.47505 -151.06976 356 ft 81 kts 82°
2026-04-23 20:10 60.47491 -151.06255 258 ft 72 kts 81°
2026-04-23 20:10 60.47487 -151.05103 132 ft 47 kts 76°
2026-04-23 20:10 60.47473 -151.04613 114 ft 23 kts 81°
2026-04-23 20:10 60.47480 -151.04367 98 ft 11 kts 80°
2026-04-23 20:11 60.47479 -151.04236 97 ft 8 kts 72°
2026-04-23 20:11 60.47485 -151.04054 109 ft 17 kts 73°
2026-04-23 20:11 60.47482 -151.03713 147 ft 24 kts 38°
2026-04-23 20:11 60.47481 -151.03453 159 ft 19 kts 27°
2026-04-23 20:12 60.47577 -151.03384 149 ft 18 kts 355°
2026-04-23 20:12 60.47686 -151.03374 122 ft 13 kts 359°
2026-04-23 20:12 60.47745 -151.03366 100 ft 3 kts 358°
2026-04-23 20:12 60.47780 -151.03365 94 ft 3 kts 356°
2026-04-23 20:13 60.47798 -151.03358 91 ft 1 kts 348°
2026-04-23 20:13 60.47798 -151.03355 88 ft 0 kts 350°